AAL2635 KLAX-KPHX
Flight info
| Callsign | AAL2635 |
|---|---|
| Flight time | 1h 13m |
| Altitude | 35000 |
| Route | DOTSS2 CNERY DCT BLH HYDRR1 |
| Aircraft | A321/M-V/N |
Departure
| Time | 2026-04-21 02:16 |
|---|---|
| Airport | Los Angeles International Airport (KLAX) |
Arrival
| Time | 2026-04-21 03:30 |
|---|---|
| Airport | Phoenix Sky Harbor International Airport (KPHX) |
| Time | Latitude | Longitude | Altitude | Speed | Heading |
|---|---|---|---|---|---|
| 2026-04-21 01:41 | 33.94067 | -118.40369 | 126 ft | 0 kts | 262° |
| 2026-04-21 02:06 | 33.94069 | -118.40359 | 122 ft | 4 kts | 260° |
| 2026-04-21 02:06 | 33.94076 | -118.40329 | 123 ft | 4 kts | 228° |
| 2026-04-21 02:07 | 33.94094 | -118.40319 | 126 ft | 3 kts | 173° |
| 2026-04-21 02:07 | 33.94118 | -118.40323 | 123 ft | 1 kts | 173° |
| 2026-04-21 02:10 | 33.94106 | -118.40321 | 123 ft | 5 kts | 173° |
| 2026-04-21 02:10 | 33.94055 | -118.40314 | 123 ft | 9 kts | 173° |
| 2026-04-21 02:10 | 33.93991 | -118.40305 | 122 ft | 10 kts | 173° |
| 2026-04-21 02:11 | 33.93918 | -118.40294 | 124 ft | 11 kts | 173° |
| 2026-04-21 02:11 | 33.93856 | -118.40256 | 125 ft | 11 kts | 105° |
| 2026-04-21 02:11 | 33.93862 | -118.40163 | 124 ft | 12 kts | 83° |
| 2026-04-21 02:11 | 33.93872 | -118.40060 | 126 ft | 13 kts | 83° |
| 2026-04-21 02:12 | 33.93885 | -118.39934 | 122 ft | 16 kts | 83° |
| 2026-04-21 02:12 | 33.93895 | -118.39843 | 126 ft | 17 kts | 83° |
| 2026-04-21 02:12 | 33.93909 | -118.39702 | 126 ft | 17 kts | 83° |
| 2026-04-21 02:12 | 33.93924 | -118.39554 | 126 ft | 18 kts | 83° |
| 2026-04-21 02:13 | 33.93939 | -118.39399 | 124 ft | 19 kts | 83° |
| 2026-04-21 02:13 | 33.93962 | -118.39185 | 123 ft | 20 kts | 84° |
| 2026-04-21 02:13 | 33.93978 | -118.39018 | 126 ft | 20 kts | 83° |
| 2026-04-21 02:13 | 33.93990 | -118.38902 | 126 ft | 21 kts | 83° |
| 2026-04-21 02:14 | 33.94009 | -118.38726 | 124 ft | 21 kts | 83° |
| 2026-04-21 02:14 | 33.94027 | -118.38545 | 123 ft | 22 kts | 83° |
| 2026-04-21 02:14 | 33.94046 | -118.38358 | 126 ft | 23 kts | 83° |
| 2026-04-21 02:14 | 33.94066 | -118.38166 | 126 ft | 23 kts | 83° |
| 2026-04-21 02:15 | 33.94073 | -118.38026 | 126 ft | 13 kts | 109° |
| 2026-04-21 02:15 | 33.93998 | -118.38008 | 123 ft | 12 kts | 219° |
| 2026-04-21 02:15 | 33.93978 | -118.38089 | 126 ft | 0 kts | 263° |
| 2026-04-21 02:15 | 33.93974 | -118.38123 | 126 ft | 22 kts | 263° |
| 2026-04-21 02:16 | 33.93924 | -118.38609 | 123 ft | 93 kts | 263° |
| 2026-04-21 02:16 | 33.93820 | -118.39621 | 124 ft | 148 kts | 263° |
| 2026-04-21 02:16 | 33.93686 | -118.40935 | 599 ft | 153 kts | 262° |
| 2026-04-21 02:16 | 33.93560 | -118.42192 | 1198 ft | 161 kts | 262° |
| 2026-04-21 02:17 | 33.93413 | -118.43635 | 1558 ft | 182 kts | 262° |
| 2026-04-21 02:17 | 33.93186 | -118.45226 | 1876 ft | 204 kts | 254° |
| 2026-04-21 02:17 | 33.92545 | -118.46805 | 2358 ft | 215 kts | 237° |
| 2026-04-21 02:17 | 33.91615 | -118.48229 | 2901 ft | 217 kts | 232° |
| 2026-04-21 02:18 | 33.90670 | -118.49657 | 3291 ft | 226 kts | 231° |
| 2026-04-21 02:18 | 33.89656 | -118.51122 | 3858 ft | 230 kts | 230° |
| 2026-04-21 02:18 | 33.88620 | -118.52590 | 4599 ft | 231 kts | 229° |
| 2026-04-21 02:18 | 33.87569 | -118.54073 | 5356 ft | 232 kts | 228° |
| 2026-04-21 02:19 | 33.86392 | -118.55372 | 6100 ft | 231 kts | 208° |
| 2026-04-21 02:19 | 33.84873 | -118.55973 | 6754 ft | 233 kts | 184° |
| 2026-04-21 02:19 | 33.83237 | -118.55769 | 7253 ft | 246 kts | 169° |
| 2026-04-21 02:19 | 33.81497 | -118.55309 | 7581 ft | 264 kts | 168° |
| 2026-04-21 02:20 | 33.79684 | -118.54811 | 8197 ft | 270 kts | 168° |
| 2026-04-21 02:20 | 33.77845 | -118.54300 | 8915 ft | 272 kts | 168° |
| 2026-04-21 02:20 | 33.75991 | -118.53789 | 9652 ft | 274 kts | 169° |
| 2026-04-21 02:20 | 33.74128 | -118.53283 | 10350 ft | 276 kts | 169° |
| 2026-04-21 02:21 | 33.72243 | -118.52775 | 11001 ft | 278 kts | 169° |
| 2026-04-21 02:21 | 33.70427 | -118.51929 | 11594 ft | 288 kts | 147° |
| 2026-04-21 02:21 | 33.69121 | -118.50070 | 12192 ft | 302 kts | 118° |
| 2026-04-21 02:21 | 33.68362 | -118.47691 | 12811 ft | 308 kts | 114° |
| 2026-04-21 02:22 | 33.67644 | -118.45251 | 13440 ft | 312 kts | 114° |
| 2026-04-21 02:22 | 33.66927 | -118.42780 | 14026 ft | 316 kts | 114° |
| 2026-04-21 02:22 | 33.66200 | -118.40274 | 14580 ft | 319 kts | 114° |
| 2026-04-21 02:22 | 33.65465 | -118.37746 | 15161 ft | 322 kts | 115° |
| 2026-04-21 02:23 | 33.64726 | -118.35192 | 15705 ft | 326 kts | 112° |
| 2026-04-21 02:23 | 33.64441 | -118.32454 | 16241 ft | 338 kts | 94° |
| 2026-04-21 02:23 | 33.64464 | -118.29621 | 16785 ft | 341 kts | 95° |
| 2026-04-21 02:23 | 33.64475 | -118.26804 | 17328 ft | 343 kts | 95° |
| 2026-04-21 02:24 | 33.64476 | -118.23927 | 17877 ft | 346 kts | 95° |
| 2026-04-21 02:24 | 33.64473 | -118.21023 | 18403 ft | 349 kts | 95° |
| 2026-04-21 02:24 | 33.64470 | -118.18097 | 18855 ft | 352 kts | 95° |
| 2026-04-21 02:24 | 33.64466 | -118.15153 | 19322 ft | 354 kts | 95° |
| 2026-04-21 02:25 | 33.64462 | -118.12182 | 19807 ft | 357 kts | 95° |
| 2026-04-21 02:25 | 33.64459 | -118.09192 | 20278 ft | 359 kts | 95° |
| 2026-04-21 02:25 | 33.64457 | -118.06184 | 20732 ft | 362 kts | 95° |
| 2026-04-21 02:25 | 33.64457 | -118.03146 | 21197 ft | 364 kts | 95° |
| 2026-04-21 02:26 | 33.64455 | -118.00100 | 21660 ft | 366 kts | 95° |
| 2026-04-21 02:26 | 33.64451 | -117.97034 | 22116 ft | 369 kts | 95° |
| 2026-04-21 02:26 | 33.64445 | -117.93952 | 22563 ft | 371 kts | 95° |
| 2026-04-21 02:26 | 33.64439 | -117.90849 | 23031 ft | 373 kts | 95° |
| 2026-04-21 02:27 | 33.64434 | -117.87718 | 23489 ft | 375 kts | 95° |
| 2026-04-21 02:27 | 33.64428 | -117.84580 | 23880 ft | 378 kts | 95° |
| 2026-04-21 02:27 | 33.64419 | -117.81416 | 24250 ft | 380 kts | 95° |
| 2026-04-21 02:27 | 33.64117 | -117.78296 | 24598 ft | 374 kts | 110° |
| 2026-04-21 02:28 | 33.63395 | -117.75293 | 24953 ft | 375 kts | 111° |
| 2026-04-21 02:28 | 33.62650 | -117.72280 | 25317 ft | 377 kts | 111° |
| 2026-04-21 02:28 | 33.61907 | -117.69295 | 25676 ft | 379 kts | 111° |
| 2026-04-21 02:28 | 33.61147 | -117.66253 | 26041 ft | 381 kts | 111° |
| 2026-04-21 02:29 | 33.60384 | -117.63189 | 26417 ft | 384 kts | 111° |
| 2026-04-21 02:29 | 33.59621 | -117.60108 | 26773 ft | 386 kts | 111° |
| 2026-04-21 02:29 | 33.58855 | -117.57016 | 27132 ft | 388 kts | 111° |
| 2026-04-21 02:29 | 33.58083 | -117.53905 | 27491 ft | 390 kts | 111° |
| 2026-04-21 02:30 | 33.57311 | -117.50780 | 27851 ft | 393 kts | 111° |
| 2026-04-21 02:30 | 33.56535 | -117.47629 | 28204 ft | 395 kts | 110° |
| 2026-04-21 02:30 | 33.55754 | -117.44468 | 28549 ft | 397 kts | 110° |
| 2026-04-21 02:30 | 33.54967 | -117.41292 | 28900 ft | 399 kts | 110° |
| 2026-04-21 02:31 | 33.54171 | -117.38098 | 29241 ft | 401 kts | 110° |
| 2026-04-21 02:31 | 33.53378 | -117.34926 | 29536 ft | 404 kts | 110° |
| 2026-04-21 02:31 | 33.52569 | -117.31689 | 29838 ft | 406 kts | 110° |
| 2026-04-21 02:31 | 33.51757 | -117.28440 | 30144 ft | 408 kts | 110° |
| 2026-04-21 02:32 | 33.50942 | -117.25173 | 30413 ft | 410 kts | 110° |
| 2026-04-21 02:32 | 33.50457 | -117.21776 | 30640 ft | 419 kts | 94° |
| 2026-04-21 02:32 | 33.50490 | -117.18271 | 30865 ft | 422 kts | 93° |
| 2026-04-21 02:32 | 33.50473 | -117.14754 | 31116 ft | 423 kts | 94° |
| 2026-04-21 02:33 | 33.50407 | -117.11220 | 31383 ft | 424 kts | 95° |
| 2026-04-21 02:33 | 33.50322 | -117.07687 | 31633 ft | 426 kts | 95° |
| 2026-04-21 02:33 | 33.50238 | -117.04129 | 31876 ft | 428 kts | 95° |
| 2026-04-21 02:33 | 33.50167 | -117.00561 | 32113 ft | 430 kts | 95° |
| 2026-04-21 02:34 | 33.50106 | -116.96971 | 32344 ft | 432 kts | 95° |
| 2026-04-21 02:34 | 33.50053 | -116.93354 | 32577 ft | 434 kts | 94° |
| 2026-04-21 02:34 | 33.50002 | -116.89732 | 32802 ft | 437 kts | 94° |
| 2026-04-21 02:34 | 33.49953 | -116.86086 | 33009 ft | 439 kts | 94° |
| 2026-04-21 02:35 | 33.49902 | -116.82425 | 33265 ft | 440 kts | 94° |
| 2026-04-21 02:35 | 33.49848 | -116.78751 | 33502 ft | 442 kts | 94° |
| 2026-04-21 02:35 | 33.49789 | -116.75109 | 33716 ft | 444 kts | 94° |
| 2026-04-21 02:35 | 33.49728 | -116.71411 | 33918 ft | 446 kts | 94° |
| 2026-04-21 02:36 | 33.49667 | -116.67687 | 34117 ft | 448 kts | 94° |
| 2026-04-21 02:36 | 33.49606 | -116.63943 | 34314 ft | 449 kts | 95° |
| 2026-04-21 02:36 | 33.49541 | -116.60194 | 34490 ft | 451 kts | 95° |
| 2026-04-21 02:36 | 33.49474 | -116.56437 | 34680 ft | 452 kts | 95° |
| 2026-04-21 02:37 | 33.49407 | -116.52658 | 34879 ft | 453 kts | 95° |
| 2026-04-21 02:37 | 33.49272 | -116.45117 | 34936 ft | 453 kts | 95° |
| 2026-04-21 02:38 | 33.49138 | -116.37572 | 34926 ft | 453 kts | 95° |
| 2026-04-21 02:38 | 33.49032 | -116.30085 | 34923 ft | 453 kts | 94° |
| 2026-04-21 02:39 | 33.48923 | -116.22541 | 34903 ft | 454 kts | 94° |
| 2026-04-21 02:39 | 33.48807 | -116.14979 | 34903 ft | 454 kts | 94° |
| 2026-04-21 02:40 | 33.48678 | -116.07415 | 34900 ft | 454 kts | 95° |
| 2026-04-21 02:40 | 33.48737 | -116.03622 | 34897 ft | 458 kts | 83° |
| 2026-04-21 02:40 | 33.49635 | -115.99957 | 34904 ft | 461 kts | 70° |
| 2026-04-21 02:41 | 33.51853 | -115.92753 | 34888 ft | 461 kts | 72° |
| 2026-04-21 02:41 | 33.53909 | -115.85468 | 34889 ft | 462 kts | 73° |
| 2026-04-21 02:42 | 33.55974 | -115.78178 | 34898 ft | 462 kts | 72° |
| 2026-04-21 02:42 | 33.58078 | -115.70947 | 34900 ft | 462 kts | 72° |
| 2026-04-21 02:43 | 33.60202 | -115.63665 | 34900 ft | 463 kts | 72° |
| 2026-04-21 02:43 | 33.61848 | -115.56258 | 34893 ft | 457 kts | 91° |
| 2026-04-21 02:44 | 33.61712 | -115.48672 | 34895 ft | 455 kts | 95° |
| 2026-04-21 02:44 | 33.61508 | -115.41086 | 34900 ft | 455 kts | 95° |
| 2026-04-21 02:45 | 33.61300 | -115.33485 | 34897 ft | 456 kts | 95° |
| 2026-04-21 02:45 | 33.61092 | -115.25886 | 34676 ft | 455 kts | 94° |
| 2026-04-21 02:45 | 33.60985 | -115.22100 | 34462 ft | 454 kts | 94° |
| 2026-04-21 02:46 | 33.60877 | -115.18325 | 34205 ft | 451 kts | 94° |
| 2026-04-21 02:46 | 33.60769 | -115.14576 | 33945 ft | 449 kts | 94° |
| 2026-04-21 02:46 | 33.60662 | -115.10838 | 33659 ft | 447 kts | 94° |
| 2026-04-21 02:46 | 33.60554 | -115.07122 | 33369 ft | 445 kts | 94° |
| 2026-04-21 02:47 | 33.60448 | -115.03469 | 33084 ft | 442 kts | 94° |
| 2026-04-21 02:47 | 33.60339 | -114.99802 | 32787 ft | 438 kts | 94° |
| 2026-04-21 02:47 | 33.60231 | -114.96165 | 32500 ft | 435 kts | 94° |
| 2026-04-21 02:47 | 33.60121 | -114.92555 | 32221 ft | 431 kts | 94° |
| 2026-04-21 02:48 | 33.60009 | -114.88976 | 31946 ft | 428 kts | 94° |
| 2026-04-21 02:48 | 33.59898 | -114.85426 | 31674 ft | 425 kts | 94° |
| 2026-04-21 02:48 | 33.59788 | -114.81890 | 31400 ft | 422 kts | 94° |
| 2026-04-21 02:48 | 33.59678 | -114.78387 | 31136 ft | 419 kts | 94° |
| 2026-04-21 02:49 | 33.59433 | -114.74925 | 30870 ft | 415 kts | 100° |
| 2026-04-21 02:49 | 33.58957 | -114.71524 | 30610 ft | 411 kts | 104° |
| 2026-04-21 02:49 | 33.58327 | -114.68193 | 30341 ft | 408 kts | 106° |
| 2026-04-21 02:49 | 33.57620 | -114.64917 | 30086 ft | 405 kts | 107° |
| 2026-04-21 02:50 | 33.56895 | -114.61665 | 29805 ft | 402 kts | 107° |
| 2026-04-21 02:50 | 33.56191 | -114.58431 | 29498 ft | 400 kts | 107° |
| 2026-04-21 02:50 | 33.55520 | -114.55204 | 29198 ft | 398 kts | 106° |
| 2026-04-21 02:50 | 33.54876 | -114.51975 | 28894 ft | 396 kts | 105° |
| 2026-04-21 02:51 | 33.54251 | -114.48764 | 28599 ft | 394 kts | 105° |
| 2026-04-21 02:51 | 33.53642 | -114.45608 | 28319 ft | 393 kts | 105° |
| 2026-04-21 02:51 | 33.53029 | -114.42427 | 28028 ft | 391 kts | 105° |
| 2026-04-21 02:51 | 33.52416 | -114.39259 | 27730 ft | 389 kts | 105° |
| 2026-04-21 02:52 | 33.51800 | -114.36108 | 27446 ft | 388 kts | 105° |
| 2026-04-21 02:52 | 33.51182 | -114.32966 | 27168 ft | 387 kts | 105° |
| 2026-04-21 02:52 | 33.50563 | -114.29838 | 26891 ft | 385 kts | 105° |
| 2026-04-21 02:52 | 33.49945 | -114.26714 | 26615 ft | 383 kts | 105° |
| 2026-04-21 02:53 | 33.49332 | -114.23616 | 26350 ft | 382 kts | 105° |
| 2026-04-21 02:53 | 33.48721 | -114.20526 | 26080 ft | 380 kts | 105° |
| 2026-04-21 02:53 | 33.48114 | -114.17446 | 25818 ft | 379 kts | 105° |
| 2026-04-21 02:53 | 33.47509 | -114.14377 | 25554 ft | 377 kts | 105° |
| 2026-04-21 02:54 | 33.46904 | -114.11329 | 25293 ft | 376 kts | 105° |
| 2026-04-21 02:54 | 33.46300 | -114.08290 | 25033 ft | 374 kts | 105° |
| 2026-04-21 02:54 | 33.45698 | -114.05259 | 24771 ft | 373 kts | 105° |
| 2026-04-21 02:54 | 33.45095 | -114.02239 | 24514 ft | 372 kts | 105° |
| 2026-04-21 02:55 | 33.44490 | -113.99226 | 24265 ft | 371 kts | 105° |
| 2026-04-21 02:55 | 33.43885 | -113.96232 | 24018 ft | 370 kts | 105° |
| 2026-04-21 02:55 | 33.43280 | -113.93249 | 23769 ft | 368 kts | 105° |
| 2026-04-21 02:55 | 33.42679 | -113.90270 | 23522 ft | 367 kts | 105° |
| 2026-04-21 02:56 | 33.42092 | -113.87350 | 23248 ft | 366 kts | 105° |
| 2026-04-21 02:56 | 33.40907 | -113.81447 | 22659 ft | 363 kts | 105° |
| 2026-04-21 02:56 | 33.40318 | -113.78523 | 22360 ft | 360 kts | 106° |
| 2026-04-21 02:57 | 33.39727 | -113.75613 | 22114 ft | 359 kts | 106° |
| 2026-04-21 02:57 | 33.39139 | -113.72711 | 21850 ft | 358 kts | 105° |
| 2026-04-21 02:57 | 33.38555 | -113.69828 | 21584 ft | 356 kts | 105° |
| 2026-04-21 02:57 | 33.37971 | -113.66953 | 21334 ft | 355 kts | 105° |
| 2026-04-21 02:58 | 33.37391 | -113.64093 | 21083 ft | 353 kts | 106° |
| 2026-04-21 02:58 | 33.36812 | -113.61246 | 20830 ft | 352 kts | 106° |
| 2026-04-21 02:58 | 33.36236 | -113.58408 | 20586 ft | 351 kts | 106° |
| 2026-04-21 02:58 | 33.35663 | -113.55580 | 20342 ft | 349 kts | 105° |
| 2026-04-21 02:59 | 33.35091 | -113.52766 | 20104 ft | 347 kts | 105° |
| 2026-04-21 02:59 | 33.34521 | -113.49962 | 19859 ft | 346 kts | 106° |
| 2026-04-21 02:59 | 33.33952 | -113.47172 | 19616 ft | 345 kts | 106° |
| 2026-04-21 02:59 | 33.33397 | -113.44384 | 19380 ft | 344 kts | 105° |
| 2026-04-21 03:00 | 33.32894 | -113.41598 | 19140 ft | 342 kts | 103° |
| 2026-04-21 03:00 | 33.32421 | -113.38812 | 18909 ft | 341 kts | 103° |
| 2026-04-21 03:00 | 33.31968 | -113.36077 | 18679 ft | 339 kts | 103° |
| 2026-04-21 03:00 | 33.31508 | -113.33314 | 18449 ft | 338 kts | 103° |
| 2026-04-21 03:01 | 33.31043 | -113.30567 | 18221 ft | 337 kts | 103° |
| 2026-04-21 03:01 | 33.30573 | -113.27831 | 17964 ft | 335 kts | 104° |
| 2026-04-21 03:01 | 33.30101 | -113.25110 | 17703 ft | 333 kts | 104° |
| 2026-04-21 03:01 | 33.29631 | -113.22398 | 17439 ft | 332 kts | 103° |
| 2026-04-21 03:02 | 33.29205 | -113.19691 | 17172 ft | 330 kts | 102° |
| 2026-04-21 03:02 | 33.28818 | -113.16994 | 16942 ft | 329 kts | 102° |
| 2026-04-21 03:02 | 33.28446 | -113.14306 | 16680 ft | 327 kts | 101° |
| 2026-04-21 03:02 | 33.28076 | -113.11630 | 16424 ft | 325 kts | 101° |
| 2026-04-21 03:03 | 33.27706 | -113.08973 | 16166 ft | 323 kts | 101° |
| 2026-04-21 03:03 | 33.27439 | -113.06317 | 15916 ft | 323 kts | 93° |
| 2026-04-21 03:03 | 33.27426 | -113.04535 | 15750 ft | 323 kts | 91° |
| 2026-04-21 03:03 | 33.27496 | -113.00983 | 15427 ft | 322 kts | 90° |
| 2026-04-21 03:04 | 33.27585 | -112.98312 | 15205 ft | 321 kts | 89° |
| 2026-04-21 03:04 | 33.27680 | -112.95650 | 14969 ft | 319 kts | 89° |
| 2026-04-21 03:04 | 33.27768 | -112.93010 | 14736 ft | 318 kts | 90° |
| 2026-04-21 03:04 | 33.27822 | -112.91266 | 14583 ft | 317 kts | 90° |
| 2026-04-21 03:05 | 33.27897 | -112.88640 | 14350 ft | 315 kts | 90° |
| 2026-04-21 03:05 | 33.27964 | -112.86023 | 14120 ft | 314 kts | 90° |
| 2026-04-21 03:05 | 33.28029 | -112.83425 | 13891 ft | 312 kts | 90° |
| 2026-04-21 03:05 | 33.28125 | -112.80825 | 13655 ft | 311 kts | 88° |
| 2026-04-21 03:06 | 33.28323 | -112.78252 | 13396 ft | 311 kts | 86° |
| 2026-04-21 03:06 | 33.28577 | -112.75690 | 13136 ft | 309 kts | 85° |
| 2026-04-21 03:06 | 33.28845 | -112.73149 | 12883 ft | 308 kts | 85° |
| 2026-04-21 03:06 | 33.29111 | -112.70614 | 12631 ft | 307 kts | 85° |
| 2026-04-21 03:07 | 33.29364 | -112.68090 | 12383 ft | 305 kts | 85° |
| 2026-04-21 03:07 | 33.29611 | -112.65571 | 12137 ft | 304 kts | 85° |
| 2026-04-21 03:07 | 33.29847 | -112.63098 | 11890 ft | 303 kts | 86° |
| 2026-04-21 03:07 | 33.30080 | -112.60601 | 11696 ft | 302 kts | 86° |
| 2026-04-21 03:08 | 33.30310 | -112.58109 | 11497 ft | 301 kts | 86° |
| 2026-04-21 03:08 | 33.30541 | -112.55623 | 11301 ft | 300 kts | 86° |
| 2026-04-21 03:08 | 33.30771 | -112.53147 | 11106 ft | 299 kts | 86° |
| 2026-04-21 03:08 | 33.30999 | -112.50675 | 10911 ft | 298 kts | 86° |
| 2026-04-21 03:09 | 33.31224 | -112.48218 | 10715 ft | 297 kts | 86° |
| 2026-04-21 03:09 | 33.31449 | -112.45762 | 10528 ft | 296 kts | 86° |
| 2026-04-21 03:09 | 33.31675 | -112.43321 | 10338 ft | 294 kts | 86° |
| 2026-04-21 03:09 | 33.31899 | -112.40896 | 10151 ft | 293 kts | 87° |
| 2026-04-21 03:10 | 33.32119 | -112.38479 | 9964 ft | 292 kts | 87° |
| 2026-04-21 03:10 | 33.32338 | -112.36073 | 9775 ft | 290 kts | 87° |
| 2026-04-21 03:10 | 33.32556 | -112.33670 | 9569 ft | 289 kts | 86° |
| 2026-04-21 03:10 | 33.32774 | -112.31287 | 9353 ft | 288 kts | 86° |
| 2026-04-21 03:11 | 33.32991 | -112.28905 | 9157 ft | 288 kts | 86° |
| 2026-04-21 03:11 | 33.33205 | -112.26545 | 8985 ft | 288 kts | 86° |
| 2026-04-21 03:11 | 33.33422 | -112.24157 | 8807 ft | 288 kts | 86° |
| 2026-04-21 03:11 | 33.33638 | -112.21772 | 8631 ft | 288 kts | 86° |
| 2026-04-21 03:12 | 33.33854 | -112.19393 | 8449 ft | 288 kts | 86° |
| 2026-04-21 03:12 | 33.34068 | -112.17011 | 8269 ft | 288 kts | 86° |
| 2026-04-21 03:12 | 33.34280 | -112.14630 | 8103 ft | 288 kts | 86° |
| 2026-04-21 03:12 | 33.34491 | -112.12251 | 7930 ft | 288 kts | 86° |
| 2026-04-21 03:13 | 33.34704 | -112.09874 | 7758 ft | 287 kts | 86° |
| 2026-04-21 03:13 | 33.34785 | -112.07496 | 7591 ft | 286 kts | 90° |
| 2026-04-21 03:13 | 33.34823 | -112.05126 | 7423 ft | 285 kts | 90° |
| 2026-04-21 03:13 | 33.34859 | -112.02755 | 7254 ft | 285 kts | 90° |
| 2026-04-21 03:14 | 33.34891 | -112.00383 | 7103 ft | 285 kts | 90° |
| 2026-04-21 03:14 | 33.34912 | -111.98006 | 7000 ft | 285 kts | 90° |
| 2026-04-21 03:14 | 33.34930 | -111.95626 | 7004 ft | 286 kts | 90° |
| 2026-04-21 03:14 | 33.34951 | -111.93301 | 7000 ft | 278 kts | 90° |
| 2026-04-21 03:15 | 33.34972 | -111.91054 | 7031 ft | 261 kts | 90° |
| 2026-04-21 03:15 | 33.34987 | -111.88959 | 7022 ft | 245 kts | 90° |
| 2026-04-21 03:15 | 33.35006 | -111.86941 | 7024 ft | 242 kts | 90° |
| 2026-04-21 03:15 | 33.35028 | -111.84926 | 7026 ft | 242 kts | 90° |
| 2026-04-21 03:16 | 33.35049 | -111.82916 | 7038 ft | 241 kts | 90° |
| 2026-04-21 03:16 | 33.35068 | -111.80914 | 7047 ft | 241 kts | 90° |
| 2026-04-21 03:16 | 33.35092 | -111.78906 | 7023 ft | 242 kts | 90° |
| 2026-04-21 03:16 | 33.35110 | -111.76877 | 7022 ft | 245 kts | 90° |
| 2026-04-21 03:17 | 33.35120 | -111.74843 | 7033 ft | 245 kts | 90° |
| 2026-04-21 03:17 | 33.35131 | -111.72853 | 7026 ft | 228 kts | 90° |
| 2026-04-21 03:17 | 33.35144 | -111.71025 | 7028 ft | 216 kts | 90° |
| 2026-04-21 03:17 | 33.35159 | -111.69239 | 7034 ft | 214 kts | 90° |
| 2026-04-21 03:18 | 33.35170 | -111.67469 | 7032 ft | 211 kts | 90° |
| 2026-04-21 03:18 | 33.35176 | -111.65731 | 6761 ft | 208 kts | 90° |
| 2026-04-21 03:18 | 33.35175 | -111.64001 | 6542 ft | 208 kts | 90° |
| 2026-04-21 03:18 | 33.35165 | -111.62257 | 6539 ft | 211 kts | 90° |
| 2026-04-21 03:19 | 33.35155 | -111.60518 | 6531 ft | 212 kts | 90° |
| 2026-04-21 03:19 | 33.35145 | -111.58756 | 6536 ft | 212 kts | 90° |
| 2026-04-21 03:19 | 33.35134 | -111.56993 | 6537 ft | 213 kts | 90° |
| 2026-04-21 03:19 | 33.35130 | -111.55220 | 6484 ft | 213 kts | 87° |
| 2026-04-21 03:20 | 33.35533 | -111.53545 | 6486 ft | 210 kts | 58° |
| 2026-04-21 03:20 | 33.36551 | -111.52334 | 6491 ft | 207 kts | 28° |
| 2026-04-21 03:20 | 33.37907 | -111.51878 | 6486 ft | 202 kts | 359° |
| 2026-04-21 03:20 | 33.39253 | -111.52246 | 6479 ft | 199 kts | 331° |
| 2026-04-21 03:21 | 33.40286 | -111.53310 | 6491 ft | 196 kts | 306° |
| 2026-04-21 03:21 | 33.41083 | -111.54625 | 6483 ft | 195 kts | 304° |
| 2026-04-21 03:21 | 33.41880 | -111.55931 | 6479 ft | 194 kts | 304° |
| 2026-04-21 03:21 | 33.42669 | -111.57224 | 6524 ft | 195 kts | 305° |
| 2026-04-21 03:22 | 33.43437 | -111.58558 | 6522 ft | 195 kts | 298° |
| 2026-04-21 03:22 | 33.43836 | -111.60096 | 6523 ft | 195 kts | 278° |
| 2026-04-21 03:22 | 33.43942 | -111.61717 | 6529 ft | 195 kts | 272° |
| 2026-04-21 03:22 | 33.43971 | -111.63332 | 6542 ft | 192 kts | 271° |
| 2026-04-21 03:23 | 33.43982 | -111.64947 | 6433 ft | 194 kts | 270° |
| 2026-04-21 03:23 | 33.43990 | -111.66556 | 6219 ft | 193 kts | 271° |
| 2026-04-21 03:23 | 33.43997 | -111.68163 | 5975 ft | 193 kts | 271° |
| 2026-04-21 03:23 | 33.44003 | -111.69764 | 5728 ft | 191 kts | 270° |
| 2026-04-21 03:24 | 33.44009 | -111.71326 | 5482 ft | 180 kts | 271° |
| 2026-04-21 03:24 | 33.44014 | -111.72799 | 5249 ft | 174 kts | 271° |
| 2026-04-21 03:24 | 33.44019 | -111.74241 | 5040 ft | 172 kts | 271° |
| 2026-04-21 03:24 | 33.44024 | -111.75666 | 4824 ft | 170 kts | 271° |
| 2026-04-21 03:25 | 33.44029 | -111.77082 | 4606 ft | 170 kts | 271° |
| 2026-04-21 03:25 | 33.44033 | -111.78474 | 4389 ft | 169 kts | 271° |
| 2026-04-21 03:25 | 33.44038 | -111.79875 | 4176 ft | 167 kts | 271° |
| 2026-04-21 03:25 | 33.44042 | -111.81261 | 3955 ft | 166 kts | 272° |
| 2026-04-21 03:26 | 33.44046 | -111.82643 | 3744 ft | 166 kts | 271° |
| 2026-04-21 03:26 | 33.44050 | -111.84020 | 3534 ft | 165 kts | 270° |
| 2026-04-21 03:26 | 33.44053 | -111.85381 | 3326 ft | 162 kts | 271° |
| 2026-04-21 03:26 | 33.44056 | -111.86701 | 3109 ft | 150 kts | 270° |
| 2026-04-21 03:27 | 33.44059 | -111.87895 | 2911 ft | 139 kts | 271° |
| 2026-04-21 03:27 | 33.44062 | -111.89031 | 2740 ft | 134 kts | 271° |
| 2026-04-21 03:27 | 33.44065 | -111.90138 | 2583 ft | 131 kts | 271° |
| 2026-04-21 03:27 | 33.44067 | -111.91209 | 2419 ft | 127 kts | 270° |
| 2026-04-21 03:28 | 33.44069 | -111.92257 | 2256 ft | 125 kts | 270° |
| 2026-04-21 03:28 | 33.44072 | -111.93301 | 2106 ft | 129 kts | 270° |
| 2026-04-21 03:28 | 33.44075 | -111.94398 | 1951 ft | 133 kts | 272° |
| 2026-04-21 03:28 | 33.44079 | -111.95496 | 1804 ft | 134 kts | 272° |
| 2026-04-21 03:29 | 33.44075 | -111.96633 | 1570 ft | 136 kts | 270° |
| 2026-04-21 03:29 | 33.44069 | -111.97772 | 1345 ft | 138 kts | 274° |
| 2026-04-21 03:29 | 33.44076 | -111.98933 | 1234 ft | 140 kts | 270° |
| 2026-04-21 03:29 | 33.44084 | -112.00041 | 1136 ft | 116 kts | 270° |
| 2026-04-21 03:30 | 33.44084 | -112.00658 | 1130 ft | 44 kts | 270° |
| 2026-04-21 03:30 | 33.44084 | -112.00960 | 1131 ft | 28 kts | 268° |
| 2026-04-21 03:30 | 33.44025 | -112.01089 | 1134 ft | 10 kts | 206° |
| 2026-04-21 03:30 | 33.43978 | -112.01046 | 1136 ft | 10 kts | 110° |
| 2026-04-21 03:31 | 33.43976 | -112.00954 | 1134 ft | 12 kts | 89° |
| 2026-04-21 03:31 | 33.43975 | -112.00849 | 1132 ft | 13 kts | 90° |
| 2026-04-21 03:31 | 33.43974 | -112.00734 | 1134 ft | 14 kts | 90° |
| 2026-04-21 03:31 | 33.43974 | -112.00611 | 1134 ft | 15 kts | 90° |
| 2026-04-21 03:32 | 33.43956 | -112.00485 | 1132 ft | 16 kts | 138° |
| 2026-04-21 03:32 | 33.43905 | -112.00381 | 1131 ft | 16 kts | 91° |
| 2026-04-21 03:32 | 33.43905 | -112.00245 | 1131 ft | 17 kts | 90° |
| 2026-04-21 03:32 | 33.43905 | -112.00106 | 1131 ft | 14 kts | 89° |
| 2026-04-21 03:33 | 33.43870 | -112.00034 | 1134 ft | 11 kts | 165° |
| 2026-04-21 03:33 | 33.43804 | -112.00032 | 1132 ft | 5 kts | 179° |
| 2026-04-21 03:33 | 33.43771 | -112.00030 | 1133 ft | 4 kts | 170° |
| 2026-04-21 03:33 | 33.43758 | -112.00008 | 1132 ft | 4 kts | 112° |
| 2026-04-21 03:34 | 33.43755 | -111.99993 | 1134 ft | 2 kts | 102° |
| 2026-04-21 03:34 | 33.43753 | -111.99979 | 1132 ft | 0 kts | 93° |